sensor_id;sensor_type;location;lat;lon;timestamp;pressure;altitude;pressure_sealevel;temperature;humidity
32789;BME280;19141;48.980;8.410;2023-02-20T05:22:32;101385.53;;;5.79;100.00
32789;BME280;19141;48.980;8.410;2023-02-20T05:24:58;101373.38;;;5.77;100.00
32789;BME280;19141;48.980;8.410;2023-02-20T05:27:25;101377.38;;;5.82;100.00
32789;BME280;19141;48.980;8.410;2023-02-20T05:29:55;101382.78;;;5.81;100.00
32789;BME280;19141;48.980;8.410;2023-02-20T05:32:23;101381.53;;;5.73;100.00
32789;BME280;19141;48.980;8.410;2023-02-20T05:34:49;101385.44;;;5.81;100.00
32789;BME280;19141;48.980;8.410;2023-02-20T05:37:16;101382.03;;;5.79;100.00
32789;BME280;19141;48.980;8.410;2023-02-20T05:39:42;101375.78;;;5.80;100.00
32789;BME280;19141;48.980;8.410;2023-02-20T05:42:08;101378.56;;;5.78;100.00
32789;BME280;19141;48.980;8.410;2023-02-20T05:44:33;101370.84;;;5.75;100.00
32789;BME280;19141;48.980;8.410;2023-02-20T05:46:59;101370.75;;;5.77;100.00
32789;BME280;19141;48.980;8.410;2023-02-20T05:49:25;101371.69;;;5.76;100.00
32789;BME280;19141;48.980;8.410;2023-02-20T05:51:51;101373.59;;;5.73;100.00
32789;BME280;19141;48.980;8.410;2023-02-20T05:54:18;101368.31;;;5.73;100.00
32789;BME280;19141;48.980;8.410;2023-02-20T05:56:44;101372.75;;;5.73;100.00
32789;BME280;19141;48.980;8.410;2023-02-20T05:59:11;101380.94;;;5.70;100.00
32789;BME280;19141;48.980;8.410;2023-02-20T06:01:37;101377.56;;;5.68;100.00
32789;BME280;19141;48.980;8.410;2023-02-20T06:04:03;101378.41;;;5.68;100.00
32789;BME280;19141;48.980;8.410;2023-02-20T06:09:01;101372.16;;;5.69;100.00
32789;BME280;19141;48.980;8.410;2023-02-20T06:11:27;101369.63;;;5.68;100.00
32789;BME280;19141;48.980;8.410;2023-02-20T06:13:52;101366.38;;;5.64;100.00
32789;BME280;19141;48.980;8.410;2023-02-20T06:16:26;101365.41;;;5.65;100.00
32789;BME280;19141;48.980;8.410;2023-02-20T06:18:52;101363.72;;;5.64;100.00
32789;BME280;19141;48.980;8.410;2023-02-20T06:21:18;101364.56;;;5.65;100.00
32789;BME280;19141;48.980;8.410;2023-02-20T06:23:48;101363.72;;;5.64;100.00
32789;BME280;19141;48.980;8.410;2023-02-20T06:26:14;101371.66;;;5.64;100.00
32789;BME280;19141;48.980;8.410;2023-02-20T06:28:40;101363.00;;;5.62;100.00
32789;BME280;19141;48.980;8.410;2023-02-20T06:31:06;101365.41;;;5.65;100.00
32789;BME280;19141;48.980;8.410;2023-02-20T06:33:32;101373.34;;;5.65;100.00
32789;BME280;19141;48.980;8.410;2023-02-20T06:35:58;101372.38;;;5.66;100.00
32789;BME280;19141;48.980;8.410;2023-02-20T06:38:24;101370.69;;;5.65;100.00
32789;BME280;19141;48.980;8.410;2023-02-20T06:40:49;101368.88;;;5.66;100.00
32789;BME280;19141;48.980;8.410;2023-02-20T06:43:15;101374.28;;;5.64;100.00
32789;BME280;19141;48.980;8.410;2023-02-20T06:45:41;101368.28;;;5.62;100.00
32789;BME280;19141;48.980;8.410;2023-02-20T06:48:06;101369.97;;;5.63;100.00
32789;BME280;19141;48.980;8.410;2023-02-20T06:50:32;101375.84;;;5.67;100.00
32789;BME280;19141;48.980;8.410;2023-02-20T06:52:57;101378.50;;;5.67;100.00
32789;BME280;19141;48.980;8.410;2023-02-20T06:55:22;101375.75;;;5.68;100.00
32789;BME280;19141;48.980;8.410;2023-02-20T06:57:48;101370.84;;;5.75;100.00
32789;BME280;19141;48.980;8.410;2023-02-20T07:00:14;101376.53;;;5.82;100.00
32789;BME280;19141;48.980;8.410;2023-02-20T07:02:39;101374.41;;;5.87;100.00
32789;BME280;19141;48.980;8.410;2023-02-20T07:05:05;101366.13;;;5.91;100.00
32789;BME280;19141;48.980;8.410;2023-02-20T07:07:31;101376.38;;;5.96;100.00
32789;BME280;19141;48.980;8.410;2023-02-20T07:09:56;101373.97;;;6.04;100.00
32789;BME280;19141;48.980;8.410;2023-02-20T07:12:24;101370.84;;;6.10;100.00
32789;BME280;19141;48.980;8.410;2023-02-20T07:14:50;101372.91;;;6.18;100.00
32789;BME280;19141;48.980;8.410;2023-02-20T07:17:15;101374.97;;;6.25;100.00
32789;BME280;19141;48.980;8.410;2023-02-20T07:19:41;101367.41;;;6.32;100.00
32789;BME280;19141;48.980;8.410;2023-02-20T07:22:06;101375.97;;;6.36;100.00
32789;BME280;19141;48.980;8.410;2023-02-20T07:24:32;101373.44;;;6.45;100.00
32789;BME280;19141;48.980;8.410;2023-02-20T07:26:59;101365.63;;;6.55;100.00
32789;BME280;19141;48.980;8.410;2023-02-20T07:29:24;101372.38;;;6.59;100.00
32789;BME280;19141;48.980;8.410;2023-02-20T07:31:50;101371.38;;;6.71;100.00
32789;BME280;19141;48.980;8.410;2023-02-20T07:34:15;101377.91;;;6.78;100.00
32789;BME280;19141;48.980;8.410;2023-02-20T07:36:41;101387.16;;;6.84;100.00
32789;BME280;19141;48.980;8.410;2023-02-20T07:39:06;101390.63;;;6.96;100.00
32789;BME280;19141;48.980;8.410;2023-02-20T07:41:32;101385.34;;;7.07;100.00
32789;BME280;19141;48.980;8.410;2023-02-20T07:44:02;101386.66;;;7.13;100.00
32789;BME280;19141;48.980;8.410;2023-02-20T07:46:28;101391.34;;;7.20;100.00
32789;BME280;19141;48.980;8.410;2023-02-20T07:49:01;101389.38;;;7.33;100.00
32789;BME280;19141;48.980;8.410;2023-02-20T07:51:27;101399.22;;;7.43;99.03
32789;BME280;19141;48.980;8.410;2023-02-20T07:53:52;101402.22;;;7.49;98.26
32789;BME280;19141;48.980;8.410;2023-02-20T07:56:20;101393.75;;;7.55;97.67
32789;BME280;19141;48.980;8.410;2023-02-20T07:58:46;101401.81;;;7.65;97.67
32789;BME280;19141;48.980;8.410;2023-02-20T08:01:12;101396.19;;;7.79;96.89
32789;BME280;19141;48.980;8.410;2023-02-20T08:03:38;101402.69;;;7.86;95.79
32789;BME280;19141;48.980;8.410;2023-02-20T08:06:03;101402.16;;;7.93;95.06
32789;BME280;19141;48.980;8.410;2023-02-20T08:08:29;101393.19;;;8.05;94.00
32789;BME280;19141;48.980;8.410;2023-02-20T08:10:55;101394.53;;;8.20;93.76
32789;BME280;19141;48.980;8.410;2023-02-20T08:13:20;101388.88;;;8.34;92.33
32789;BME280;19141;48.980;8.410;2023-02-20T08:15:46;101393.06;;;8.48;91.57
32789;BME280;19141;48.980;8.410;2023-02-20T08:18:12;101373.69;;;8.57;90.84
32789;BME280;19141;48.980;8.410;2023-02-20T08:20:38;101389.41;;;8.80;88.46
32789;BME280;19141;48.980;8.410;2023-02-20T08:23:03;101388.25;;;8.93;88.30
32789;BME280;19141;48.980;8.410;2023-02-20T08:25:30;101389.13;;;9.13;86.81
32789;BME280;19141;48.980;8.410;2023-02-20T08:27:57;101376.53;;;9.25;86.27
32789;BME280;19141;48.980;8.410;2023-02-20T08:30:25;101381.06;;;9.44;85.33
32789;BME280;19141;48.980;8.410;2023-02-20T08:32:51;101386.25;;;9.55;84.78
32789;BME280;19141;48.980;8.410;2023-02-20T08:35:17;101373.53;;;9.59;83.98
32789;BME280;19141;48.980;8.410;2023-02-20T08:37:43;101382.75;;;9.84;82.29
32789;BME280;19141;48.980;8.410;2023-02-20T08:40:09;101375.88;;;9.91;80.61
32789;BME280;19141;48.980;8.410;2023-02-20T08:42:34;101373.19;;;10.10;81.16
32789;BME280;19141;48.980;8.410;2023-02-20T08:45:01;101372.50;;;10.18;78.96
32789;BME280;19141;48.980;8.410;2023-02-20T08:47:27;101370.13;;;10.24;79.71
32789;BME280;19141;48.980;8.410;2023-02-20T08:49:52;101375.69;;;10.41;79.15
32789;BME280;19141;48.980;8.410;2023-02-20T08:52:18;101369.38;;;10.42;78.56
32789;BME280;19141;48.980;8.410;2023-02-20T08:54:45;101371.44;;;10.48;77.39
32789;BME280;19141;48.980;8.410;2023-02-20T08:57:12;101367.72;;;10.68;77.49
32789;BME280;19141;48.980;8.410;2023-02-20T08:59:37;101366.03;;;10.77;77.72
32789;BME280;19141;48.980;8.410;2023-02-20T09:02:04;101363.63;;;11.01;75.53
32789;BME280;19141;48.980;8.410;2023-02-20T09:04:29;101360.84;;;11.03;73.57
32789;BME280;19141;48.980;8.410;2023-02-20T09:06:55;101361.59;;;11.13;75.39
32789;BME280;19141;48.980;8.410;2023-02-20T09:09:20;101368.00;;;11.20;74.20
32789;BME280;19141;48.980;8.410;2023-02-20T09:11:46;101358.66;;;11.16;72.60
32789;BME280;19141;48.980;8.410;2023-02-20T09:14:11;101352.69;;;11.04;72.02
32789;BME280;19141;48.980;8.410;2023-02-20T09:16:36;101353.13;;;11.00;73.09
32789;BME280;19141;48.980;8.410;2023-02-20T09:19:07;101357.88;;;10.78;72.94
32789;BME280;19141;48.980;8.410;2023-02-20T09:21:32;101346.31;;;10.87;72.66
32789;BME280;19141;48.980;8.410;2023-02-20T09:23:58;101337.88;;;10.92;72.44
32789;BME280;19141;48.980;8.410;2023-02-20T09:26:23;101349.41;;;11.10;71.13
32789;BME280;19141;48.980;8.410;2023-02-20T09:28:49;101343.34;;;11.18;71.02
32789;BME280;19141;48.980;8.410;2023-02-20T09:31:14;101345.94;;;11.46;69.92
32789;BME280;19141;48.980;8.410;2023-02-20T09:33:43;101333.22;;;11.57;69.33
32789;BME280;19141;48.980;8.410;2023-02-20T09:36:09;101340.97;;;11.86;68.93
32789;BME280;19141;48.980;8.410;2023-02-20T09:38:34;101339.94;;;12.05;67.22
32789;BME280;19141;48.980;8.410;2023-02-20T09:41:00;101344.03;;;12.17;66.20
32789;BME280;19141;48.980;8.410;2023-02-20T09:46:17;101327.13;;;12.69;62.84
32789;BME280;19141;48.980;8.410;2023-02-20T09:51:31;101322.81;;;13.26;61.17
32789;BME280;19141;48.980;8.410;2023-02-20T09:54:05;101321.50;;;13.39;60.47
32789;BME280;19141;48.980;8.410;2023-02-20T09:56:34;101316.00;;;13.56;59.53
32789;BME280;19141;48.980;8.410;2023-02-20T09:59:18;101322.66;;;13.61;59.16
32789;BME280;19141;48.980;8.410;2023-02-20T10:04:38;101311.97;;;13.85;56.98
32789;BME280;19141;48.980;8.410;2023-02-20T10:07:17;101312.41;;;14.13;56.67
32789;BME280;19141;48.980;8.410;2023-02-20T10:09:45;101306.09;;;13.98;56.88
32789;BME280;19141;48.980;8.410;2023-02-20T10:12:28;101296.00;;;14.16;56.27
32789;BME280;19141;48.980;8.410;2023-02-20T10:21:01;101300.41;;;14.96;53.83
32789;BME280;19141;48.980;8.410;2023-02-20T10:23:49;101294.34;;;15.25;52.33
32789;BME280;19141;48.980;8.410;2023-02-20T10:26:20;101289.00;;;15.47;51.12
32789;BME280;19141;48.980;8.410;2023-02-20T10:28:48;101279.88;;;15.94;50.12
32789;BME280;19141;48.980;8.410;2023-02-20T10:34:27;101286.31;;;15.70;50.80
32789;BME280;19141;48.980;8.410;2023-02-20T10:37:02;101288.31;;;16.21;50.09
32789;BME280;19141;48.980;8.410;2023-02-20T10:39:29;101284.53;;;16.30;49.76
32789;BME280;19141;48.980;8.410;2023-02-20T10:42:15;101284.41;;;16.53;48.27
32789;BME280;19141;48.980;8.410;2023-02-20T10:44:57;101277.34;;;16.96;48.65
32789;BME280;19141;48.980;8.410;2023-02-20T10:47:48;101280.72;;;17.26;45.99
32789;BME280;19141;48.980;8.410;2023-02-20T10:52:59;101277.34;;;17.39;46.46
32789;BME280;19141;48.980;8.410;2023-02-20T10:55:34;101281.28;;;17.64;45.24
32789;BME280;19141;48.980;8.410;2023-02-20T10:58:08;101276.28;;;17.83;46.12
32789;BME280;19141;48.980;8.410;2023-02-20T11:00:55;101277.22;;;18.31;44.33
32789;BME280;19141;48.980;8.410;2023-02-20T11:06:09;101268.34;;;18.79;42.96
32789;BME280;19141;48.980;8.410;2023-02-20T11:08:36;101277.13;;;18.94;42.43
32789;BME280;19141;48.980;8.410;2023-02-20T11:11:19;101267.22;;;19.28;42.10
32789;BME280;19141;48.980;8.410;2023-02-20T11:13:45;101269.09;;;19.34;41.48
32789;BME280;19141;48.980;8.410;2023-02-20T11:16:20;101280.34;;;19.50;41.52
32789;BME280;19141;48.980;8.410;2023-02-20T11:18:48;101271.75;;;19.07;41.97
32789;BME280;19141;48.980;8.410;2023-02-20T11:21:39;101258.66;;;18.97;41.49
32789;BME280;19141;48.980;8.410;2023-02-20T11:26:48;101258.09;;;19.82;40.63
32789;BME280;19141;48.980;8.410;2023-02-20T11:29:19;101261.22;;;19.78;40.61
32789;BME280;19141;48.980;8.410;2023-02-20T11:31:46;101245.97;;;20.17;39.97
32789;BME280;19141;48.980;8.410;2023-02-20T11:34:18;101239.44;;;20.51;39.97
32789;BME280;19141;48.980;8.410;2023-02-20T11:36:47;101236.03;;;20.69;39.47
32789;BME280;19141;48.980;8.410;2023-02-20T11:39:23;101233.56;;;19.96;39.75
32789;BME280;19141;48.980;8.410;2023-02-20T11:42:04;101223.63;;;19.70;40.82
32789;BME280;19141;48.980;8.410;2023-02-20T11:44:30;101215.00;;;20.65;39.18
32789;BME280;19141;48.980;8.410;2023-02-20T11:47:19;101219.88;;;20.43;39.91
32789;BME280;19141;48.980;8.410;2023-02-20T11:49:46;101203.22;;;19.68;40.15
32789;BME280;19141;48.980;8.410;2023-02-20T11:52:19;101203.66;;;19.71;40.11
32789;BME280;19141;48.980;8.410;2023-02-20T11:54:44;101195.09;;;19.74;40.49
32789;BME280;19141;48.980;8.410;2023-02-20T11:59:47;101190.53;;;19.55;40.33
32789;BME280;19141;48.980;8.410;2023-02-20T12:09:45;101163.41;;;20.59;38.73
32789;BME280;19141;48.980;8.410;2023-02-20T12:12:12;101167.69;;;21.05;37.72
32789;BME280;19141;48.980;8.410;2023-02-20T12:14:38;101163.47;;;20.40;38.56
32789;BME280;19141;48.980;8.410;2023-02-20T12:17:20;101164.59;;;20.70;38.05
32789;BME280;19141;48.980;8.410;2023-02-20T12:20:16;101154.63;;;20.64;37.35
32789;BME280;19141;48.980;8.410;2023-02-20T12:28:08;101151.47;;;19.64;39.41
32789;BME280;19141;48.980;8.410;2023-02-20T12:31:01;101145.22;;;19.57;39.08
32789;BME280;19141;48.980;8.410;2023-02-20T12:33:36;101144.53;;;20.46;39.12
32789;BME280;19141;48.980;8.410;2023-02-20T12:41:31;101128.84;;;20.93;37.01
32789;BME280;19141;48.980;8.410;2023-02-20T12:44:22;101123.91;;;20.83;37.44
32789;BME280;19141;48.980;8.410;2023-02-20T12:52:43;101102.28;;;20.77;37.86
32789;BME280;19141;48.980;8.410;2023-02-20T12:55:28;101099.00;;;20.37;38.09
32789;BME280;19141;48.980;8.410;2023-02-20T13:00:49;101089.41;;;20.72;36.91
32789;BME280;19141;48.980;8.410;2023-02-20T13:05:56;101085.16;;;20.13;37.61
32789;BME280;19141;48.980;8.410;2023-02-20T13:08:34;101082.53;;;20.00;38.49
32789;BME280;19141;48.980;8.410;2023-02-20T13:11:04;101078.66;;;19.83;39.30
32789;BME280;19141;48.980;8.410;2023-02-20T13:13:37;101083.06;;;19.57;39.82
32789;BME280;19141;48.980;8.410;2023-02-20T13:16:15;101071.22;;;19.71;38.99
32789;BME280;19141;48.980;8.410;2023-02-20T13:18:52;101066.22;;;19.68;39.67
32789;BME280;19141;48.980;8.410;2023-02-20T13:21:22;101065.41;;;19.48;39.54
32789;BME280;19141;48.980;8.410;2023-02-20T13:23:49;101060.31;;;18.87;40.77
32789;BME280;19141;48.980;8.410;2023-02-20T13:29:22;101060.00;;;18.15;42.69
32789;BME280;19141;48.980;8.410;2023-02-20T13:31:57;101046.75;;;18.27;42.76
32789;BME280;19141;48.980;8.410;2023-02-20T13:34:30;101049.19;;;17.61;43.20
32789;BME280;19141;48.980;8.410;2023-02-20T13:36:57;101039.06;;;17.00;45.61
32789;BME280;19141;48.980;8.410;2023-02-20T13:39:35;101043.31;;;17.51;44.93
32789;BME280;19141;48.980;8.410;2023-02-20T13:42:02;101041.03;;;17.13;45.05
32789;BME280;19141;48.980;8.410;2023-02-20T13:47:15;101018.50;;;16.65;46.58
32789;BME280;19141;48.980;8.410;2023-02-20T13:52:32;101003.03;;;16.24;47.60
32789;BME280;19141;48.980;8.410;2023-02-20T13:57:44;101004.34;;;15.92;48.34
32789;BME280;19141;48.980;8.410;2023-02-20T14:02:48;100994.78;;;16.04;48.97
32789;BME280;19141;48.980;8.410;2023-02-20T14:05:23;100980.72;;;15.87;48.85
32789;BME280;19141;48.980;8.410;2023-02-20T14:07:50;100986.31;;;15.71;50.13
32789;BME280;19141;48.980;8.410;2023-02-20T14:13:00;100971.03;;;15.57;50.35
32789;BME280;19141;48.980;8.410;2023-02-20T14:15:27;100981.59;;;15.58;50.68
32789;BME280;19141;48.980;8.410;2023-02-20T14:17:55;100974.03;;;15.62;49.63
32789;BME280;19141;48.980;8.410;2023-02-20T14:20:24;100964.88;;;15.41;50.15
32789;BME280;19141;48.980;8.410;2023-02-20T14:23:17;100964.13;;;15.47;50.69
32789;BME280;19141;48.980;8.410;2023-02-20T14:25:54;100965.63;;;15.35;50.33
32789;BME280;19141;48.980;8.410;2023-02-20T14:28:20;100954.78;;;15.43;50.48
32789;BME280;19141;48.980;8.410;2023-02-20T14:30:45;100958.66;;;15.56;50.91
32789;BME280;19141;48.980;8.410;2023-02-20T14:33:30;100958.38;;;15.51;50.37
32789;BME280;19141;48.980;8.410;2023-02-20T14:41:14;100954.41;;;15.46;51.05
32789;BME280;19141;48.980;8.410;2023-02-20T14:43:41;100950.00;;;15.39;50.66
32789;BME280;19141;48.980;8.410;2023-02-20T14:46:19;100941.06;;;15.38;49.57
32789;BME280;19141;48.980;8.410;2023-02-20T14:48:45;100938.63;;;15.07;50.32
32789;BME280;19141;48.980;8.410;2023-02-20T14:51:15;100945.63;;;15.23;52.02
32789;BME280;19141;48.980;8.410;2023-02-20T14:53:44;100945.13;;;15.13;50.56
32789;BME280;19141;48.980;8.410;2023-02-20T14:56:21;100953.25;;;15.19;51.73
32789;BME280;19141;48.980;8.410;2023-02-20T14:58:46;100939.28;;;15.09;51.69
32789;BME280;19141;48.980;8.410;2023-02-20T15:01:32;100934.09;;;15.08;53.15
32789;BME280;19141;48.980;8.410;2023-02-20T15:04:13;100935.56;;;14.96;51.08
32789;BME280;19141;48.980;8.410;2023-02-20T15:06:41;100941.50;;;14.91;51.40
32789;BME280;19141;48.980;8.410;2023-02-20T15:09:07;100941.78;;;14.81;51.54
32789;BME280;19141;48.980;8.410;2023-02-20T15:11:34;100940.38;;;14.71;51.48
32789;BME280;19141;48.980;8.410;2023-02-20T15:14:00;100926.88;;;14.64;52.22
32789;BME280;19141;48.980;8.410;2023-02-20T15:16:31;100924.28;;;14.56;51.48
32789;BME280;19141;48.980;8.410;2023-02-20T15:18:59;100926.00;;;14.49;51.55
32789;BME280;19141;48.980;8.410;2023-02-20T15:21:38;100925.44;;;14.53;52.13
32789;BME280;19141;48.980;8.410;2023-02-20T15:24:21;100921.50;;;14.49;52.64
32789;BME280;19141;48.980;8.410;2023-02-20T15:26:50;100914.69;;;14.38;52.61
32789;BME280;19141;48.980;8.410;2023-02-20T15:29:27;100917.00;;;14.42;54.02
32789;BME280;19141;48.980;8.410;2023-02-20T15:34:23;100909.03;;;14.33;53.02
32789;BME280;19141;48.980;8.410;2023-02-20T15:36:49;100912.91;;;14.31;53.42
32789;BME280;19141;48.980;8.410;2023-02-20T15:39:15;100904.47;;;14.19;53.25
32789;BME280;19141;48.980;8.410;2023-02-20T15:41:40;100899.75;;;14.21;53.42
32789;BME280;19141;48.980;8.410;2023-02-20T15:44:07;100895.16;;;14.15;53.46
32789;BME280;19141;48.980;8.410;2023-02-20T15:46:32;100893.44;;;14.14;53.51
32789;BME280;19141;48.980;8.410;2023-02-20T15:48:58;100883.94;;;14.11;53.88
32789;BME280;19141;48.980;8.410;2023-02-20T15:51:24;100873.50;;;14.02;54.34
32789;BME280;19141;48.980;8.410;2023-02-20T15:53:55;100875.78;;;14.05;54.81
32789;BME280;19141;48.980;8.410;2023-02-20T15:56:21;100872.28;;;14.04;54.38
32789;BME280;19141;48.980;8.410;2023-02-20T15:58:47;100876.31;;;14.00;54.94
32789;BME280;19141;48.980;8.410;2023-02-20T16:01:13;100862.00;;;13.93;54.66
32789;BME280;19141;48.980;8.410;2023-02-20T16:03:39;100860.53;;;13.91;55.35
32789;BME280;19141;48.980;8.410;2023-02-20T16:06:04;100855.16;;;13.91;55.53
32789;BME280;19141;48.980;8.410;2023-02-20T16:08:30;100851.53;;;13.83;55.60
32789;BME280;19141;48.980;8.410;2023-02-20T16:10:55;100853.72;;;13.80;56.38
32789;BME280;19141;48.980;8.410;2023-02-20T16:13:35;100861.94;;;13.78;56.40
32789;BME280;19141;48.980;8.410;2023-02-20T16:16:15;100869.88;;;13.72;55.98
32789;BME280;19141;48.980;8.410;2023-02-20T16:18:42;100871.22;;;13.68;56.84
32789;BME280;19141;48.980;8.410;2023-02-20T16:21:10;100862.44;;;13.59;57.85
32789;BME280;19141;48.980;8.410;2023-02-20T16:23:37;100861.59;;;13.58;57.56
32789;BME280;19141;48.980;8.410;2023-02-20T16:26:05;100855.75;;;13.55;58.02
32789;BME280;19141;48.980;8.410;2023-02-20T16:28:31;100856.13;;;13.52;58.05
32789;BME280;19141;48.980;8.410;2023-02-20T16:30:57;100857.66;;;13.46;59.97
32789;BME280;19141;48.980;8.410;2023-02-20T16:33:22;100850.97;;;13.42;61.87
32789;BME280;19141;48.980;8.410;2023-02-20T16:35:50;100855.22;;;13.37;58.22
32789;BME280;19141;48.980;8.410;2023-02-20T16:38:16;100847.41;;;13.27;58.91
32789;BME280;19141;48.980;8.410;2023-02-20T16:40:42;100854.28;;;13.21;60.06
32789;BME280;19141;48.980;8.410;2023-02-20T16:43:10;100845.28;;;13.14;59.68
32789;BME280;19141;48.980;8.410;2023-02-20T16:45:36;100839.47;;;13.11;59.69
32789;BME280;19141;48.980;8.410;2023-02-20T16:48:02;100830.97;;;12.99;60.04
32789;BME280;19141;48.980;8.410;2023-02-20T16:50:29;100841.00;;;12.97;60.69
32789;BME280;19141;48.980;8.410;2023-02-20T16:52:56;100832.84;;;12.90;60.56
32789;BME280;19141;48.980;8.410;2023-02-20T16:55:29;100836.75;;;12.80;61.15
32789;BME280;19141;48.980;8.410;2023-02-20T16:57:54;100840.44;;;12.79;61.01
32789;BME280;19141;48.980;8.410;2023-02-20T17:00:24;100839.47;;;12.71;61.42
32789;BME280;19141;48.980;8.410;2023-02-20T17:02:51;100835.78;;;12.64;61.36
32789;BME280;19141;48.980;8.410;2023-02-20T17:05:19;100836.47;;;12.58;61.51
32789;BME280;19141;48.980;8.410;2023-02-20T17:07:45;100836.47;;;12.58;62.00
32789;BME280;19141;48.980;8.410;2023-02-20T17:10:10;100833.19;;;12.48;62.54
32789;BME280;19141;48.980;8.410;2023-02-20T17:12:36;100838.03;;;12.44;62.54
32789;BME280;19141;48.980;8.410;2023-02-20T17:15:04;100837.38;;;12.42;62.91
32789;BME280;19141;48.980;8.410;2023-02-20T17:17:30;100839.06;;;12.35;63.54
32789;BME280;19141;48.980;8.410;2023-02-20T17:19:58;100837.72;;;12.31;63.75
32789;BME280;19141;48.980;8.410;2023-02-20T17:22:24;100836.25;;;12.20;63.87
32789;BME280;19141;48.980;8.410;2023-02-20T17:24:50;100842.59;;;12.19;63.70
32789;BME280;19141;48.980;8.410;2023-02-20T17:27:16;100824.44;;;12.07;64.16
32789;BME280;19141;48.980;8.410;2023-02-20T17:29:43;100844.09;;;12.06;64.79
32789;BME280;19141;48.980;8.410;2023-02-20T17:32:09;100845.44;;;12.02;64.70
32789;BME280;19141;48.980;8.410;2023-02-20T17:34:34;100840.94;;;12.02;64.63
32789;BME280;19141;48.980;8.410;2023-02-20T17:36:59;100837.09;;;11.97;64.62
32789;BME280;19141;48.980;8.410;2023-02-20T17:39:27;100843.63;;;11.94;64.47
32789;BME280;19141;48.980;8.410;2023-02-20T17:41:54;100841.09;;;11.92;64.61
32789;BME280;19141;48.980;8.410;2023-02-20T17:44:22;100845.31;;;11.87;64.68
32789;BME280;19141;48.980;8.410;2023-02-20T17:46:50;100845.25;;;11.79;65.28
32789;BME280;19141;48.980;8.410;2023-02-20T17:49:16;100842.25;;;11.74;65.35
32789;BME280;19141;48.980;8.410;2023-02-20T17:51:43;100842.75;;;11.69;65.63
32789;BME280;19141;48.980;8.410;2023-02-20T17:54:09;100849.75;;;11.70;65.82
32789;BME280;19141;48.980;8.410;2023-02-20T17:56:41;100855.41;;;11.67;65.81
32789;BME280;19141;48.980;8.410;2023-02-20T17:59:08;100859.59;;;11.61;66.54
32789;BME280;19141;48.980;8.410;2023-02-20T18:01:33;100863.94;;;11.62;66.54
32789;BME280;19141;48.980;8.410;2023-02-20T18:03:59;100862.25;;;11.61;66.45
32789;BME280;19141;48.980;8.410;2023-02-20T18:06:24;100859.91;;;11.58;66.71
32789;BME280;19141;48.980;8.410;2023-02-20T18:08:50;100860.91;;;11.49;67.02
32789;BME280;19141;48.980;8.410;2023-02-20T18:11:16;100867.56;;;11.53;66.72
32789;BME280;19141;48.980;8.410;2023-02-20T18:13:42;100867.91;;;11.50;66.90
32789;BME280;19141;48.980;8.410;2023-02-20T18:16:08;100860.72;;;11.43;67.06
32789;BME280;19141;48.980;8.410;2023-02-20T18:18:33;100878.41;;;11.44;67.37
32789;BME280;19141;48.980;8.410;2023-02-20T18:20:59;100867.91;;;11.42;67.89
32789;BME280;19141;48.980;8.410;2023-02-20T18:23:24;100873.88;;;11.36;68.11
32789;BME280;19141;48.980;8.410;2023-02-20T18:25:50;100875.19;;;11.32;67.99
32789;BME280;19141;48.980;8.410;2023-02-20T18:28:16;100871.19;;;11.28;68.49
32789;BME280;19141;48.980;8.410;2023-02-20T18:30:41;100874.34;;;11.23;68.79
32789;BME280;19141;48.980;8.410;2023-02-20T18:33:07;100869.00;;;11.23;68.77
32789;BME280;19141;48.980;8.410;2023-02-20T18:35:33;100869.31;;;11.20;69.05
32789;BME280;19141;48.980;8.410;2023-02-20T18:37:59;100857.63;;;11.13;69.46
32789;BME280;19141;48.980;8.410;2023-02-20T18:40:26;100855.97;;;11.12;69.74
32789;BME280;19141;48.980;8.410;2023-02-20T18:42:52;100851.47;;;11.04;69.88
32789;BME280;19141;48.980;8.410;2023-02-20T18:45:17;100861.09;;;10.97;70.89
32789;BME280;19141;48.980;8.410;2023-02-20T18:47:47;100861.25;;;10.96;70.59
32789;BME280;19141;48.980;8.410;2023-02-20T18:50:13;100862.56;;;10.92;70.76
32789;BME280;19141;48.980;8.410;2023-02-20T18:52:39;100842.88;;;10.76;71.48
32789;BME280;19141;48.980;8.410;2023-02-20T18:55:04;100848.84;;;10.78;71.59
32789;BME280;19141;48.980;8.410;2023-02-20T18:57:30;100863.66;;;10.73;72.30
32789;BME280;19141;48.980;8.410;2023-02-20T18:59:55;100859.63;;;10.69;72.10
32789;BME280;19141;48.980;8.410;2023-02-20T19:02:20;100864.63;;;10.64;72.43
32789;BME280;19141;48.980;8.410;2023-02-20T19:04:49;100864.06;;;10.60;72.67
32789;BME280;19141;48.980;8.410;2023-02-20T19:07:14;100861.03;;;10.55;72.92
32789;BME280;19141;48.980;8.410;2023-02-20T19:09:40;100863.66;;;10.47;73.30
32789;BME280;19141;48.980;8.410;2023-02-20T19:12:05;100866.13;;;10.40;73.66
32789;BME280;19141;48.980;8.410;2023-02-20T19:14:31;100864.41;;;10.31;74.06
32789;BME280;19141;48.980;8.410;2023-02-20T19:16:58;100859.38;;;10.28;74.59
32789;BME280;19141;48.980;8.410;2023-02-20T19:19:26;100863.38;;;10.24;74.75
32789;BME280;19141;48.980;8.410;2023-02-20T19:21:52;100856.59;;;10.12;75.02
32789;BME280;19141;48.980;8.410;2023-02-20T19:24:19;100861.22;;;10.10;75.31
32789;BME280;19141;48.980;8.410;2023-02-20T19:26:45;100861.53;;;10.06;75.65
32789;BME280;19141;48.980;8.410;2023-02-20T19:29:11;100852.13;;;9.94;76.18
32789;BME280;19141;48.980;8.410;2023-02-20T19:31:37;100847.47;;;9.96;76.35
32789;BME280;19141;48.980;8.410;2023-02-20T19:34:03;100841.44;;;9.86;77.01
32789;BME280;19141;48.980;8.410;2023-02-20T19:36:28;100834.06;;;9.80;76.94
32789;BME280;19141;48.980;8.410;2023-02-20T19:38:53;100838.56;;;9.79;77.56
32789;BME280;19141;48.980;8.410;2023-02-20T19:41:19;100836.34;;;9.75;77.64
32789;BME280;19141;48.980;8.410;2023-02-20T19:43:46;100846.16;;;9.74;77.60